Time;durP1;ratioP1;P1;durP2;ratioP2;P2;SDS_P1;SDS_P2;PMS_P1;PMS_P2;Temp;Humidity;BMP_temperature;BMP_pressure;BME280_temperature;BME280_humidity;BME280_pressure;Samples;Min_cycle;Max_cycle;Signal;HPM_P1;HPM_P2
2023/12/01 00:02:07;;;;;;;48.50;16.38;;;1.70;99.90;;;;;;6210589;23;20071;-67
2023/12/01 00:04:33;;;;;;;48.65;17.00;;;1.70;99.90;;;;;;6182882;23;20027;-67
2023/12/01 00:06:58;;;;;;;54.88;17.70;;;1.60;99.90;;;;;;6210472;23;20083;-67
2023/12/01 00:09:24;;;;;;;57.63;17.85;;;1.60;99.90;;;;;;6210633;23;20087;-67
2023/12/01 00:11:50;;;;;;;47.55;16.88;;;1.60;99.90;;;;;;6210490;23;20490;-67
2023/12/01 00:14:16;;;;;;;53.17;18.23;;;1.60;99.90;;;;;;6210397;23;20091;-66
2023/12/01 00:16:41;;;;;;;53.67;18.02;;;1.60;99.90;;;;;;6183376;23;20035;-66
2023/12/01 00:19:07;;;;;;;54.83;18.42;;;1.60;99.90;;;;;;6210881;23;20017;-67
2023/12/01 00:21:33;;;;;;;51.00;16.88;;;1.60;99.90;;;;;;6210288;23;20047;-66
2023/12/01 00:23:58;;;;;;;54.40;17.48;;;1.60;99.90;;;;;;6210876;23;20027;-67
2023/12/01 00:26:24;;;;;;;50.05;17.55;;;1.60;99.90;;;;;;6183544;23;20405;-66
2023/12/01 00:28:50;;;;;;;55.78;16.85;;;1.50;99.90;;;;;;6210457;23;20020;-66
2023/12/01 00:31:15;;;;;;;47.03;16.67;;;1.50;99.90;;;;;;6210736;23;20017;-66
2023/12/01 00:33:41;;;;;;;52.15;16.23;;;1.50;99.90;;;;;;6210738;23;20175;-67
2023/12/01 00:36:07;;;;;;;53.92;17.92;;;1.50;99.90;;;;;;6211071;23;20013;-66
2023/12/01 00:38:34;;;;;;;53.00;16.90;;;1.50;99.90;;;;;;6210445;23;20406;-67
2023/12/01 00:41:00;;;;;;;54.53;17.15;;;1.50;99.90;;;;;;6210453;23;20025;-67
2023/12/01 00:43:26;;;;;;;46.33;15.63;;;1.50;99.90;;;;;;6183842;23;20021;-67
2023/12/01 00:45:52;;;;;;;43.40;15.13;;;1.50;99.90;;;;;;6210566;23;20328;-66
2023/12/01 00:48:17;;;;;;;44.85;15.05;;;1.50;99.90;;;;;;6210171;23;20024;-66
2023/12/01 00:50:43;;;;;;;43.22;15.48;;;1.50;99.90;;;;;;6183974;23;20020;-66
2023/12/01 00:53:09;;;;;;;39.55;14.55;;;1.50;99.90;;;;;;6183709;23;20059;-66
2023/12/01 00:55:35;;;;;;;47.72;15.32;;;1.50;99.90;;;;;;6183493;23;20025;-67
2023/12/01 00:58:02;;;;;;;38.25;14.52;;;1.50;99.90;;;;;;6210468;23;20025;-67
2023/12/01 01:00:27;;;;;;;39.53;14.38;;;1.60;99.90;;;;;;6210677;23;20036;-66
2023/12/01 01:02:53;;;;;;;33.70;13.15;;;1.50;99.90;;;;;;6210229;23;20349;-67
2023/12/01 01:05:19;;;;;;;42.40;13.57;;;1.40;99.90;;;;;;6210169;23;20095;-67
2023/12/01 01:07:45;;;;;;;44.03;15.25;;;1.40;99.90;;;;;;6210590;23;20088;-67
2023/12/01 01:10:10;;;;;;;37.33;14.05;;;1.40;99.90;;;;;;6210196;23;20345;-66
2023/12/01 01:12:36;;;;;;;43.35;15.05;;;1.40;99.90;;;;;;6210042;23;20020;-67
2023/12/01 01:15:03;;;;;;;35.83;13.50;;;1.40;99.90;;;;;;6183479;23;20091;-66
2023/12/01 01:17:33;;;;;;;41.85;13.88;;;1.50;99.90;;;;;;6210689;23;20016;-67
2023/12/01 01:19:59;;;;;;;42.53;13.68;;;1.40;99.90;;;;;;6209802;23;20397;-67
2023/12/01 01:22:25;;;;;;;43.00;14.25;;;1.20;99.90;;;;;;6210162;23;20445;-67
2023/12/01 01:24:54;;;;;;;35.65;12.88;;;1.20;99.90;;;;;;6211081;23;20020;-67
2023/12/01 01:27:20;;;;;;;40.60;14.77;;;1.10;99.90;;;;;;6211647;23;20031;-67
2023/12/01 01:29:46;;;;;;;43.05;15.13;;;1.20;99.90;;;;;;6185122;23;20028;-67
2023/12/01 01:32:12;;;;;;;34.83;13.43;;;1.20;99.90;;;;;;6211904;23;20327;-67
2023/12/01 01:34:38;;;;;;;35.80;13.45;;;1.20;99.90;;;;;;6211653;23;20027;-66
2023/12/01 01:37:05;;;;;;;35.90;13.02;;;1.20;99.90;;;;;;6211655;23;20027;-66
2023/12/01 01:39:31;;;;;;;37.63;13.35;;;1.20;99.90;;;;;;6185036;23;20029;-67
2023/12/01 01:41:57;;;;;;;31.70;11.82;;;1.20;99.90;;;;;;6184834;23;20354;-66
2023/12/01 01:44:22;;;;;;;33.15;12.85;;;1.30;99.90;;;;;;6212032;23;20024;-67
2023/12/01 01:46:50;;;;;;;39.15;13.70;;;1.20;99.90;;;;;;6212215;23;20024;-66
2023/12/01 01:49:17;;;;;;;34.30;14.05;;;1.20;99.90;;;;;;6211747;23;20017;-66
2023/12/01 01:51:44;;;;;;;33.53;12.55;;;1.20;99.90;;;;;;6211952;23;20376;-66
2023/12/01 01:54:10;;;;;;;41.55;14.00;;;1.20;99.90;;;;;;6211965;23;20112;-66
2023/12/01 01:56:38;;;;;;;31.42;11.65;;;1.10;99.90;;;;;;6211322;23;20334;-66
2023/12/01 01:59:04;;;;;;;39.28;12.93;;;1.10;99.90;;;;;;6211547;23;20453;-66
2023/12/01 02:01:30;;;;;;;31.38;11.75;;;1.10;99.90;;;;;;6211973;23;20031;-66
2023/12/01 02:03:56;;;;;;;37.40;13.77;;;1.20;99.90;;;;;;6211900;23;20555;-66
2023/12/01 02:06:30;;;;;;;37.67;13.05;;;1.20;99.90;;;;;;6211658;23;20020;-66
2023/12/01 02:08:57;;;;;;;32.88;11.68;;;1.10;99.90;;;;;;6211815;23;20123;-66
2023/12/01 02:11:25;;;;;;;28.17;11.80;;;1.10;99.90;;;;;;6211952;23;20803;-66
2023/12/01 02:13:52;;;;;;;30.20;11.93;;;1.10;99.90;;;;;;6211679;23;20017;-66
2023/12/01 02:16:18;;;;;;;27.42;12.35;;;1.10;99.90;;;;;;6211412;23;20025;-66
2023/12/01 02:18:43;;;;;;;30.63;11.52;;;1.10;99.90;;;;;;6211566;23;20078;-66
2023/12/01 02:21:09;;;;;;;28.83;11.98;;;1.00;99.90;;;;;;6211061;23;20462;-66
2023/12/01 02:23:35;;;;;;;28.88;11.45;;;1.00;99.90;;;;;;6211522;23;20020;-66
2023/12/01 02:26:01;;;;;;;30.83;10.93;;;1.00;99.90;;;;;;6211497;23;20057;-66
2023/12/01 02:28:26;;;;;;;24.42;10.82;;;0.90;99.90;;;;;;6211517;23;20313;-66
2023/12/01 02:30:54;;;;;;;33.33;11.55;;;0.90;99.90;;;;;;6211637;23;20012;-66
2023/12/01 02:33:21;;;;;;;25.77;10.90;;;0.90;99.90;;;;;;6210800;23;20031;-66
2023/12/01 02:35:52;;;;;;;27.65;10.90;;;1.00;99.90;;;;;;6211475;23;20016;-66
2023/12/01 02:38:18;;;;;;;25.10;10.60;;;0.90;99.90;;;;;;6211572;23;20027;-67
2023/12/01 02:40:49;;;;;;;27.17;10.70;;;0.80;99.90;;;;;;6211124;23;20381;-66
2023/12/01 02:43:18;;;;;;;26.05;11.07;;;0.80;99.90;;;;;;6184460;23;20679;-66
2023/12/01 02:45:44;;;;;;;26.60;10.65;;;0.80;99.90;;;;;;6211205;23;20017;-66
2023/12/01 02:48:10;;;;;;;24.95;11.38;;;0.80;99.90;;;;;;6211681;23;20032;-66
2023/12/01 02:50:36;;;;;;;27.98;11.68;;;0.80;99.90;;;;;;6211818;23;20017;-66
2023/12/01 02:53:03;;;;;;;28.42;13.25;;;0.80;99.90;;;;;;6211312;23;20126;-66
2023/12/01 02:55:29;;;;;;;28.92;12.30;;;0.80;99.90;;;;;;6211279;23;20013;-66
2023/12/01 02:57:54;;;;;;;24.70;11.23;;;0.80;99.90;;;;;;6184942;23;20027;-66
2023/12/01 03:00:22;;;;;;;28.83;13.30;;;0.80;99.90;;;;;;6184382;23;20433;-66
2023/12/01 03:02:49;;;;;;;26.23;11.75;;;0.80;99.90;;;;;;6211357;23;20052;-66
2023/12/01 03:05:15;;;;;;;25.02;11.75;;;0.80;99.90;;;;;;6211665;23;20024;-66
2023/12/01 03:07:41;;;;;;;27.38;12.20;;;0.80;99.90;;;;;;6184388;23;20538;-66
2023/12/01 03:10:08;;;;;;;28.48;12.02;;;0.80;99.90;;;;;;6210928;23;20194;-66
2023/12/01 03:12:37;;;;;;;29.55;11.48;;;0.80;99.90;;;;;;6211274;23;20048;-66
2023/12/01 03:15:04;;;;;;;21.02;10.93;;;0.70;99.90;;;;;;6210707;23;20027;-66
2023/12/01 03:17:30;;;;;;;22.38;9.55;;;0.60;99.90;;;;;;6211345;23;20321;-66
2023/12/01 03:19:57;;;;;;;25.10;10.60;;;0.60;99.90;;;;;;6184148;23;20063;-66
2023/12/01 03:22:23;;;;;;;22.55;10.52;;;0.60;99.90;;;;;;6211240;23;20021;-66
2023/12/01 03:24:50;;;;;;;26.27;11.27;;;0.70;99.90;;;;;;6210601;23;20494;-66
2023/12/01 03:27:16;;;;;;;26.50;11.77;;;0.60;99.90;;;;;;6210913;23;20021;-66
2023/12/01 03:29:42;;;;;;;30.65;12.27;;;0.50;99.90;;;;;;6211056;23;20071;-66
2023/12/01 03:32:08;;;;;;;24.42;11.90;;;0.70;99.90;;;;;;6210484;23;20012;-66
2023/12/01 03:34:34;;;;;;;26.27;10.63;;;0.50;99.90;;;;;;6210903;23;20020;-66
2023/12/01 03:37:00;;;;;;;21.50;9.95;;;0.40;99.90;;;;;;6211052;23;20020;-66
2023/12/01 03:39:26;;;;;;;23.77;10.52;;;0.30;99.90;;;;;;6210757;23;20024;-66
2023/12/01 03:41:52;;;;;;;26.45;10.90;;;0.30;99.90;;;;;;6210578;23;20024;-66
2023/12/01 03:44:18;;;;;;;22.77;10.10;;;0.30;99.90;;;;;;6159200;23;20020;-66
2023/12/01 03:46:44;;;;;;;23.92;10.50;;;0.20;99.90;;;;;;6210503;23;20018;-65
2023/12/01 03:49:10;;;;;;;23.80;10.85;;;0.20;99.90;;;;;;6183775;23;20103;-65
2023/12/01 03:51:36;;;;;;;23.77;9.57;;;0.20;99.90;;;;;;6211312;23;20120;-65
2023/12/01 03:54:02;;;;;;;25.20;10.48;;;0.10;99.90;;;;;;6211017;23;20150;-65
2023/12/01 03:56:29;;;;;;;29.95;11.38;;;0.10;99.90;;;;;;6211361;23;20052;-67
2023/12/01 03:58:55;;;;;;;23.25;9.70;;;0.00;99.90;;;;;;6211286;23;20021;-65
2023/12/01 04:01:26;;;;;;;23.00;9.77;;;0.10;99.90;;;;;;6211073;23;20290;-65
2023/12/01 04:03:53;;;;;;;24.30;10.40;;;0.00;99.90;;;;;;6210627;23;20127;-65
2023/12/01 04:06:19;;;;;;;23.45;10.50;;;0.10;99.90;;;;;;6210981;23;20306;-65
2023/12/01 04:08:44;;;;;;;26.10;10.18;;;0.00;99.90;;;;;;6210138;23;20104;-65
2023/12/01 04:11:11;;;;;;;25.63;9.57;;;0.00;99.90;;;;;;6211647;23;20020;-65
2023/12/01 04:13:37;;;;;;;25.25;10.45;;;-0.10;99.90;;;;;;6210595;23;20028;-65
2023/12/01 04:16:03;;;;;;;26.70;11.70;;;-0.20;99.90;;;;;;6183858;23;20109;-65
2023/12/01 04:18:30;;;;;;;25.70;11.07;;;-0.10;99.90;;;;;;6211615;23;20095;-65
2023/12/01 04:20:57;;;;;;;28.05;11.57;;;-0.20;99.90;;;;;;6209980;23;20163;-65
2023/12/01 04:23:23;;;;;;;25.95;11.15;;;-0.10;99.90;;;;;;6183873;23;20056;-65
2023/12/01 04:25:49;;;;;;;23.65;10.57;;;-0.10;99.90;;;;;;6183713;23;20433;-65
2023/12/01 04:28:15;;;;;;;22.17;10.57;;;-0.20;99.90;;;;;;6210564;23;20021;-65
2023/12/01 04:30:42;;;;;;;23.60;9.88;;;-0.10;99.90;;;;;;6210446;23;20023;-64
2023/12/01 04:33:08;;;;;;;26.85;11.35;;;-0.20;99.90;;;;;;6183410;23;20349;-65
2023/12/01 04:35:36;;;;;;;29.83;11.02;;;-0.20;99.90;;;;;;6209998;23;20437;-65
2023/12/01 04:38:03;;;;;;;27.20;11.20;;;-0.20;99.90;;;;;;6210304;23;20024;-65
2023/12/01 04:40:30;;;;;;;25.38;10.43;;;-0.30;99.90;;;;;;6183618;23;20024;-65
2023/12/01 04:42:57;;;;;;;31.23;11.95;;;-0.20;99.90;;;;;;6210623;23;20020;-65
2023/12/01 04:45:27;;;;;;;26.73;10.77;;;-0.20;99.90;;;;;;6210601;23;20013;-65
2023/12/01 04:47:55;;;;;;;29.35;12.10;;;-0.20;99.90;;;;;;6210458;23;20027;-64
2023/12/01 04:50:29;;;;;;;32.72;12.18;;;-0.20;99.90;;;;;;6210247;23;20034;-65
2023/12/01 04:53:00;;;;;;;31.98;12.27;;;-0.20;99.90;;;;;;6183661;23;20044;-65
2023/12/01 04:55:29;;;;;;;26.58;10.85;;;-0.20;99.90;;;;;;6210504;23;20120;-65
2023/12/01 04:57:56;;;;;;;30.35;12.68;;;-0.10;99.90;;;;;;6210838;23;20024;-65
2023/12/01 05:00:25;;;;;;;26.58;11.50;;;-0.20;99.90;;;;;;6212280;23;20021;-65
2023/12/01 05:03:01;;;;;;;31.45;12.80;;;-0.30;99.90;;;;;;6185488;23;20056;-65
2023/12/01 05:05:32;;;;;;;32.15;12.13;;;-0.40;99.90;;;;;;6212089;23;20283;-65
2023/12/01 05:07:59;;;;;;;28.55;12.02;;;-0.50;99.90;;;;;;6212303;23;20009;-65
2023/12/01 05:10:30;;;;;;;30.33;11.27;;;-0.50;99.90;;;;;;6185172;23;20020;-65
2023/12/01 05:13:00;;;;;;;28.27;11.32;;;-0.50;99.90;;;;;;6212215;23;20327;-65
2023/12/01 05:15:28;;;;;;;31.02;13.35;;;-0.50;99.90;;;;;;6212189;23;20147;-65
2023/12/01 05:18:01;;;;;;;31.77;12.88;;;-0.60;99.90;;;;;;6212410;23;20357;-65
2023/12/01 05:20:27;;;;;;;37.15;13.07;;;-0.50;99.90;;;;;;6211663;23;20016;-65
2023/12/01 05:22:55;;;;;;;31.20;12.13;;;-0.50;99.90;;;;;;6212159;23;20048;-65
2023/12/01 05:25:25;;;;;;;40.80;14.93;;;-0.50;99.90;;;;;;6212457;23;20013;-65
2023/12/01 05:27:59;;;;;;;37.72;15.15;;;-0.50;99.90;;;;;;6212038;23;20122;-65
2023/12/01 05:30:27;;;;;;;35.58;13.50;;;-0.50;99.90;;;;;;6211954;23;20091;-65
2023/12/01 05:32:54;;;;;;;35.05;13.27;;;-0.50;99.90;;;;;;6212051;23;20042;-65
2023/12/01 05:35:21;;;;;;;33.72;12.95;;;-0.50;99.90;;;;;;6211950;23;20016;-65
2023/12/01 05:37:51;;;;;;;37.10;13.30;;;-0.50;99.90;;;;;;6184808;23;20357;-65
2023/12/01 05:40:23;;;;;;;36.72;14.32;;;-0.50;99.90;;;;;;6211780;23;20066;-65
2023/12/01 05:42:52;;;;;;;37.42;12.57;;;-0.60;99.90;;;;;;6211881;23;20024;-65
2023/12/01 05:45:20;;;;;;;35.47;13.65;;;-0.50;99.90;;;;;;6212086;23;20380;-64
2023/12/01 05:47:48;;;;;;;34.00;13.60;;;-0.60;99.90;;;;;;6211809;23;20024;-65
2023/12/01 05:50:16;;;;;;;34.05;13.60;;;-0.50;99.90;;;;;;6211400;23;20013;-65
2023/12/01 05:52:46;;;;;;;33.80;12.52;;;-0.60;99.90;;;;;;6212096;23;20051;-65
2023/12/01 05:55:20;;;;;;;38.13;13.38;;;-0.60;99.90;;;;;;6211742;23;20406;-64
2023/12/01 05:57:48;;;;;;;40.78;13.90;;;-0.60;99.90;;;;;;6184756;23;20013;-65
2023/12/01 06:00:28;;;;;;;36.47;14.77;;;-0.60;99.90;;;;;;6184425;23;20020;-65
2023/12/01 06:02:56;;;;;;;36.33;13.57;;;-0.60;99.90;;;;;;6211878;23;20028;-65
2023/12/01 06:05:22;;;;;;;34.00;12.85;;;-0.60;99.90;;;;;;6185383;23;20289;-65
2023/12/01 06:07:54;;;;;;;37.50;13.48;;;-0.60;99.90;;;;;;6211734;23;20017;-65
2023/12/01 06:10:21;;;;;;;33.53;13.25;;;-0.60;99.90;;;;;;6211473;23;20013;-65
2023/12/01 06:12:47;;;;;;;35.72;12.38;;;-0.60;99.90;;;;;;6212076;23;20092;-65
2023/12/01 06:15:15;;;;;;;35.40;13.02;;;-0.60;99.90;;;;;;6211977;23;20032;-65
2023/12/01 06:17:43;;;;;;;43.15;14.65;;;-0.60;99.90;;;;;;6211812;23;20016;-65
2023/12/01 06:20:19;;;;;;;36.70;14.65;;;-0.70;99.90;;;;;;6211797;23;20013;-64
2023/12/01 06:22:52;;;;;;;37.83;13.65;;;-0.70;99.90;;;;;;6211397;23;20052;-64
2023/12/01 06:25:19;;;;;;;40.13;13.23;;;-0.70;99.90;;;;;;6211839;23;20035;-65
2023/12/01 06:27:46;;;;;;;33.15;12.45;;;-0.80;99.90;;;;;;6184504;23;20021;-65
2023/12/01 06:30:14;;;;;;;37.10;14.30;;;-0.80;99.90;;;;;;6211342;23;20078;-65
2023/12/01 06:32:45;;;;;;;33.72;13.02;;;-0.80;99.90;;;;;;6184077;23;20143;-65
2023/12/01 06:35:15;;;;;;;35.30;13.35;;;-1.00;99.90;;;;;;6211954;23;20099;-64
2023/12/01 06:37:42;;;;;;;39.03;12.25;;;-0.90;99.90;;;;;;6184972;23;20043;-64
2023/12/01 06:40:12;;;;;;;27.65;10.90;;;-0.90;99.90;;;;;;6211329;23;20340;-64
2023/12/01 06:42:42;;;;;;;41.00;13.98;;;-0.70;99.90;;;;;;6211754;23;20020;-64
2023/12/01 06:45:13;;;;;;;42.53;13.35;;;-0.70;99.90;;;;;;6211629;23;20020;-64
2023/12/01 06:47:47;;;;;;;34.65;12.88;;;-0.90;99.90;;;;;;6184593;23;20025;-64
2023/12/01 06:50:18;;;;;;;36.15;14.27;;;-0.90;99.90;;;;;;6211394;23;20020;-64
2023/12/01 06:52:46;;;;;;;30.80;11.95;;;-0.90;99.90;;;;;;6211361;23;20048;-64
2023/12/01 06:55:12;;;;;;;38.10;13.57;;;-1.00;99.90;;;;;;6184437;23;20017;-64
2023/12/01 06:57:43;;;;;;;36.22;11.90;;;-1.00;99.90;;;;;;6211534;23;20386;-64
2023/12/01 07:00:21;;;;;;;34.15;12.38;;;-1.10;99.90;;;;;;6211242;23;20295;-64
2023/12/01 07:02:48;;;;;;;30.63;11.48;;;-1.10;99.90;;;;;;6211187;23;20238;-64
2023/12/01 07:05:19;;;;;;;33.05;12.82;;;-1.20;99.90;;;;;;6211430;23;20491;-64
2023/12/01 07:07:47;;;;;;;38.03;13.00;;;-1.20;99.90;;;;;;6184282;23;20028;-64
2023/12/01 07:10:14;;;;;;;33.78;13.35;;;-1.10;99.90;;;;;;6210945;23;20020;-64
2023/12/01 07:12:39;;;;;;;35.60;13.45;;;-1.20;99.90;;;;;;6211239;23;20095;-64
2023/12/01 07:15:11;;;;;;;35.45;12.05;;;-1.10;99.90;;;;;;6211392;23;20048;-64
2023/12/01 07:17:38;;;;;;;34.40;13.25;;;-1.10;99.90;;;;;;6184495;23;20025;-64
2023/12/01 07:20:13;;;;;;;33.72;12.88;;;-1.20;99.90;;;;;;6205994;23;20116;-65
2023/12/01 07:22:43;;;;;;;38.58;14.38;;;-1.20;99.90;;;;;;6180552;23;20048;-64
2023/12/01 07:25:21;;;;;;;34.55;13.32;;;-1.10;99.90;;;;;;6154039;23;20021;-65
2023/12/01 07:28:11;;;;;;;33.85;12.32;;;-1.20;99.90;;;;;;6153496;23;20476;-64
2023/12/01 07:30:40;;;;;;;33.72;13.65;;;-1.30;99.90;;;;;;6180310;23;20032;-65
2023/12/01 07:33:06;;;;;;;36.50;13.75;;;-1.30;99.90;;;;;;6180726;23;20066;-65
2023/12/01 07:35:31;;;;;;;46.17;20.88;;;-1.30;99.90;;;;;;6180492;23;20420;-65
2023/12/01 07:37:58;;;;;;;40.90;17.15;;;-1.30;99.90;;;;;;6180793;23;20017;-65
2023/12/01 07:40:24;;;;;;;38.45;18.20;;;-1.40;99.90;;;;;;6181082;23;20107;-65
2023/12/01 07:42:51;;;;;;;41.80;26.42;;;-1.40;99.90;;;;;;6180752;23;20025;-65
2023/12/01 07:45:18;;;;;;;34.17;15.30;;;-1.40;99.90;;;;;;6153948;23;20025;-65
2023/12/01 07:47:44;;;;;;;29.77;15.18;;;-1.30;99.90;;;;;;6180695;23;20464;-65
2023/12/01 07:50:10;;;;;;;29.42;12.18;;;-1.40;99.90;;;;;;6180806;23;20107;-65
2023/12/01 07:52:36;;;;;;;27.88;11.20;;;-1.40;99.90;;;;;;6181142;23;20049;-65
2023/12/01 07:55:03;;;;;;;25.13;10.98;;;-1.30;99.90;;;;;;6181010;23;20017;-65
2023/12/01 07:57:28;;;;;;;26.80;10.35;;;-1.30;99.90;;;;;;6180687;23;20009;-65
2023/12/01 07:59:56;;;;;;;24.58;10.20;;;-1.20;99.90;;;;;;6153638;23;20025;-65
2023/12/01 08:02:22;;;;;;;22.55;9.85;;;-1.30;99.90;;;;;;6180458;23;20021;-65
2023/12/01 08:04:47;;;;;;;27.55;10.43;;;-1.30;99.90;;;;;;6180512;23;20096;-65
2023/12/01 08:07:13;;;;;;;28.38;10.50;;;-1.30;99.90;;;;;;6180724;23;20020;-65
2023/12/01 08:09:39;;;;;;;25.10;11.18;;;-1.20;99.90;;;;;;6180264;23;20488;-65
2023/12/01 08:12:04;;;;;;;22.65;9.75;;;-1.20;99.90;;;;;;6180334;23;20013;-65
2023/12/01 08:14:30;;;;;;;27.55;11.02;;;-1.20;99.90;;;;;;6154147;23;20013;-65
2023/12/01 08:16:56;;;;;;;26.50;10.70;;;-1.20;99.90;;;;;;6180475;23;20346;-65
2023/12/01 08:19:22;;;;;;;24.92;10.98;;;-1.20;99.90;;;;;;6180750;23;20017;-63
2023/12/01 08:21:47;;;;;;;27.67;10.48;;;-1.10;99.90;;;;;;6206299;23;20342;-64
2023/12/01 08:24:13;;;;;;;24.60;10.30;;;-1.10;99.90;;;;;;6183330;23;20021;-63
2023/12/01 08:26:39;;;;;;;22.10;10.98;;;-1.00;99.90;;;;;;6210730;23;20724;-65
2023/12/01 08:29:05;;;;;;;22.40;9.60;;;-1.00;99.90;;;;;;6209669;23;20017;-66
2023/12/01 08:31:31;;;;;;;23.52;9.65;;;-1.00;99.90;;;;;;6207378;23;20021;-65
2023/12/01 08:33:58;;;;;;;23.27;9.63;;;-1.10;99.90;;;;;;6210371;23;20017;-65
2023/12/01 08:36:24;;;;;;;23.08;10.52;;;-1.10;99.90;;;;;;6211328;23;20012;-65
2023/12/01 08:38:50;;;;;;;24.77;10.52;;;-1.10;99.90;;;;;;6212170;23;20028;-65
2023/12/01 08:41:16;;;;;;;30.33;11.45;;;-1.10;99.90;;;;;;6212582;23;20048;-65
2023/12/01 08:43:42;;;;;;;19.10;9.55;;;-1.10;99.90;;;;;;6212146;23;20023;-66
2023/12/01 08:46:07;;;;;;;25.20;10.45;;;-1.10;99.90;;;;;;6212552;23;20337;-65
2023/12/01 08:48:33;;;;;;;28.30;11.32;;;-1.00;99.90;;;;;;6212351;23;20024;-65
2023/12/01 08:50:59;;;;;;;27.92;11.60;;;-1.00;99.90;;;;;;6212008;23;20025;-64
2023/12/01 08:53:25;;;;;;;27.33;11.02;;;-1.00;99.90;;;;;;6212150;23;20084;-65
2023/12/01 08:55:51;;;;;;;26.67;10.88;;;-1.00;99.90;;;;;;6212113;23;20052;-64
2023/12/01 08:58:22;;;;;;;24.90;10.00;;;-1.00;99.90;;;;;;6212190;23;20405;-65
2023/12/01 09:00:47;;;;;;;27.90;11.00;;;-1.00;99.90;;;;;;6212535;23;20024;-64
2023/12/01 09:03:13;;;;;;;24.02;10.68;;;-1.00;99.90;;;;;;6212622;23;20341;-64
2023/12/01 09:05:39;;;;;;;24.85;10.40;;;-0.90;99.90;;;;;;6212337;23;20028;-64
2023/12/01 09:08:05;;;;;;;27.08;11.20;;;-0.90;99.90;;;;;;6211968;23;20071;-64
2023/12/01 09:10:32;;;;;;;26.48;10.00;;;-0.90;99.90;;;;;;6185508;23;20032;-65
2023/12/01 09:12:59;;;;;;;25.92;10.25;;;-0.90;99.90;;;;;;6211731;23;20028;-65
2023/12/01 09:15:25;;;;;;;24.02;10.38;;;-0.90;99.90;;;;;;6185327;23;20027;-64
2023/12/01 09:17:53;;;;;;;25.38;10.63;;;-0.90;99.90;;;;;;6212211;23;20059;-65
2023/12/01 09:20:20;;;;;;;28.23;10.45;;;-0.90;99.90;;;;;;6204077;23;20025;-65
2023/12/01 09:22:46;;;;;;;27.00;10.63;;;-0.90;99.90;;;;;;6182243;23;20088;-64
2023/12/01 09:25:12;;;;;;;26.83;11.27;;;-0.80;99.90;;;;;;6182342;23;20048;-65
2023/12/01 09:27:37;;;;;;;26.73;11.43;;;-0.80;99.90;;;;;;6181991;23;20334;-65
2023/12/01 09:30:07;;;;;;;22.70;10.90;;;-0.70;99.90;;;;;;6182105;23;20271;-65
2023/12/01 09:32:32;;;;;;;23.30;10.30;;;-0.70;99.90;;;;;;6181438;23;20390;-65
2023/12/01 09:34:58;;;;;;;21.80;9.90;;;-0.70;99.90;;;;;;6182573;23;20017;-66
2023/12/01 09:37:24;;;;;;;23.10;9.18;;;-0.80;99.90;;;;;;6181920;23;20440;-65
2023/12/01 09:39:51;;;;;;;24.40;10.73;;;-0.80;99.90;;;;;;6182008;23;20028;-65
2023/12/01 09:42:19;;;;;;;24.67;10.55;;;-0.70;99.90;;;;;;6155322;23;20025;-65
2023/12/01 09:44:45;;;;;;;24.73;10.27;;;-0.70;99.90;;;;;;6181440;23;20013;-66
2023/12/01 09:47:17;;;;;;;26.52;11.30;;;-0.70;99.90;;;;;;6155482;23;20777;-65
2023/12/01 09:49:46;;;;;;;23.33;9.88;;;-0.70;99.90;;;;;;6182078;23;20021;-65
2023/12/01 09:52:11;;;;;;;21.70;10.38;;;-0.70;99.90;;;;;;6181709;23;20032;-65
2023/12/01 09:54:38;;;;;;;22.85;9.75;;;-0.70;99.90;;;;;;6181802;23;20013;-66
2023/12/01 09:57:06;;;;;;;23.05;10.85;;;-0.70;99.90;;;;;;6181790;23;20031;-64
2023/12/01 09:59:35;;;;;;;22.45;9.32;;;-0.60;99.90;;;;;;6155062;23;20047;-64
2023/12/01 10:02:02;;;;;;;23.83;9.98;;;-0.70;99.90;;;;;;6181816;23;20084;-65
2023/12/01 10:04:28;;;;;;;21.35;9.38;;;-0.60;99.90;;;;;;6182022;23;20045;-64
2023/12/01 10:06:57;;;;;;;21.40;11.07;;;-0.50;99.90;;;;;;6181515;23;20024;-64
2023/12/01 10:09:27;;;;;;;22.42;9.75;;;-0.50;99.90;;;;;;6181566;23;20017;-64
2023/12/01 10:12:09;;;;;;;23.63;9.90;;;-0.60;99.90;;;;;;6181782;23;20370;-64
2023/12/01 10:14:36;;;;;;;23.47;10.10;;;-0.60;99.90;;;;;;6183475;23;20547;-64
2023/12/01 10:17:03;;;;;;;23.13;9.40;;;-0.60;99.90;;;;;;6182258;23;20028;-64
2023/12/01 10:19:33;;;;;;;23.70;10.25;;;-0.50;99.90;;;;;;6155482;23;20464;-64
2023/12/01 10:21:59;;;;;;;24.00;9.88;;;-0.50;99.90;;;;;;6210100;23;20351;-64
2023/12/01 10:24:25;;;;;;;24.33;11.15;;;-0.50;99.90;;;;;;6211663;23;20013;-64
2023/12/01 10:26:53;;;;;;;19.38;9.38;;;-0.50;99.90;;;;;;6211732;23;20083;-64
2023/12/01 10:29:28;;;;;;;24.38;11.20;;;-0.60;99.90;;;;;;6211922;23;20020;-64
2023/12/01 10:32:01;;;;;;;24.95;9.95;;;-0.50;99.90;;;;;;6184545;23;20020;-64
2023/12/01 10:34:27;;;;;;;20.55;10.05;;;-0.50;99.90;;;;;;6211979;23;20386;-64
2023/12/01 10:36:53;;;;;;;22.40;10.10;;;-0.60;99.90;;;;;;6211813;23;20044;-64
2023/12/01 10:39:24;;;;;;;23.33;10.40;;;-0.50;99.90;;;;;;6211886;23;20397;-65
2023/12/01 10:41:51;;;;;;;21.70;10.88;;;-0.40;99.90;;;;;;6211931;23;20024;-65
2023/12/01 10:44:21;;;;;;;23.48;10.77;;;-0.40;99.90;;;;;;6212102;23;20313;-65
2023/12/01 10:46:47;;;;;;;24.60;11.15;;;-0.30;99.90;;;;;;6211815;23;20096;-65
2023/12/01 10:49:17;;;;;;;23.10;9.65;;;-0.40;99.90;;;;;;6184353;23;20021;-65
2023/12/01 10:51:44;;;;;;;21.90;10.77;;;-0.40;99.90;;;;;;6184429;23;20013;-65
2023/12/01 10:54:11;;;;;;;20.33;9.50;;;-0.30;99.90;;;;;;6211320;23;20087;-65
2023/12/01 10:57:02;;;;;;;20.60;10.13;;;-0.30;99.90;;;;;;6211446;23;20044;-65
2023/12/01 10:59:29;;;;;;;22.65;10.20;;;-0.30;99.90;;;;;;6211450;23;20090;-65
2023/12/01 11:01:58;;;;;;;20.23;10.73;;;-0.30;99.90;;;;;;6211129;23;20070;-65
2023/12/01 11:04:26;;;;;;;21.70;9.52;;;-0.30;99.90;;;;;;6211329;23;20078;-65
2023/12/01 11:06:51;;;;;;;23.92;9.88;;;-0.20;99.90;;;;;;6211191;23;20021;-65
2023/12/01 11:09:30;;;;;;;22.00;9.20;;;-0.30;99.90;;;;;;6211046;23;20334;-66
2023/12/01 11:12:24;;;;;;;21.58;9.77;;;-0.20;99.90;;;;;;6211375;23;20317;-66
2023/12/01 11:14:52;;;;;;;21.70;9.85;;;-0.20;99.90;;;;;;6210757;23;20428;-66
2023/12/01 11:17:19;;;;;;;21.23;10.48;;;-0.10;99.90;;;;;;6211636;23;20345;-66
2023/12/01 11:19:44;;;;;;;21.95;10.25;;;0.00;99.90;;;;;;6210927;23;20060;-66
2023/12/01 11:22:27;;;;;;;21.60;10.30;;;0.00;99.90;;;;;;6210609;23;20666;-66
2023/12/01 11:24:54;;;;;;;19.38;8.73;;;0.00;99.90;;;;;;6211284;23;20027;-66
2023/12/01 11:27:19;;;;;;;21.27;10.40;;;0.10;99.90;;;;;;6210770;23;20429;-66
2023/12/01 11:30:00;;;;;;;19.02;9.55;;;0.00;99.90;;;;;;6210504;23;20031;-66
2023/12/01 11:32:38;;;;;;;17.90;8.23;;;0.10;99.90;;;;;;6210739;23;20024;-66
2023/12/01 11:35:09;;;;;;;20.67;9.48;;;0.10;99.90;;;;;;6210454;23;20044;-67
2023/12/01 11:37:58;;;;;;;17.33;9.35;;;0.10;99.90;;;;;;6183050;23;20028;-66
2023/12/01 11:40:26;;;;;;;18.50;9.65;;;0.10;99.90;;;;;;6210315;23;20052;-66
2023/12/01 11:42:52;;;;;;;22.67;10.50;;;0.10;99.90;;;;;;6210219;23;20021;-66
2023/12/01 11:45:36;;;;;;;24.77;10.23;;;0.20;99.90;;;;;;6158379;23;20412;-66
2023/12/01 11:48:05;;;;;;;21.48;10.23;;;0.20;99.90;;;;;;6183314;23;20032;-67
2023/12/01 11:50:31;;;;;;;20.80;10.27;;;0.20;99.90;;;;;;6210152;23;20370;-66
2023/12/01 11:52:57;;;;;;;21.35;9.93;;;0.20;99.90;;;;;;6210130;23;20074;-66
2023/12/01 11:55:23;;;;;;;25.35;11.00;;;0.20;99.90;;;;;;6210080;23;20024;-66
2023/12/01 11:57:56;;;;;;;20.13;9.63;;;0.30;99.90;;;;;;6210519;23;20023;-66
2023/12/01 12:00:22;;;;;;;21.75;10.23;;;0.20;99.90;;;;;;6210340;23;20345;-67
2023/12/01 12:02:47;;;;;;;19.35;9.25;;;0.30;99.90;;;;;;6210753;23;20024;-64
2023/12/01 12:05:13;;;;;;;21.50;9.35;;;0.30;99.90;;;;;;6210658;23;20025;-64
2023/12/01 12:07:41;;;;;;;22.23;9.93;;;0.20;99.90;;;;;;6210254;23;20027;-66
2023/12/01 12:10:07;;;;;;;20.70;10.77;;;0.40;99.90;;;;;;6210215;23;20090;-66
2023/12/01 12:12:33;;;;;;;19.90;9.25;;;0.40;99.90;;;;;;6210400;23;20477;-67
2023/12/01 12:15:08;;;;;;;20.30;8.93;;;0.30;99.90;;;;;;6210857;23;20024;-66
2023/12/01 12:17:34;;;;;;;16.52;8.07;;;0.30;99.90;;;;;;6210900;23;20023;-66
2023/12/01 12:19:59;;;;;;;15.77;8.13;;;0.30;99.90;;;;;;6210233;23;20020;-66
2023/12/01 12:22:26;;;;;;;18.17;8.68;;;0.20;99.90;;;;;;6183860;23;20027;-66
2023/12/01 12:24:52;;;;;;;15.73;8.05;;;0.20;99.90;;;;;;6210386;23;20016;-66
2023/12/01 12:27:18;;;;;;;14.80;7.28;;;0.20;99.90;;;;;;6210846;23;20021;-67
2023/12/01 12:29:45;;;;;;;13.05;7.30;;;0.20;99.90;;;;;;6210605;23;20318;-67
2023/12/01 12:32:11;;;;;;;16.70;8.63;;;0.20;99.90;;;;;;6183389;23;20027;-66
2023/12/01 12:34:38;;;;;;;19.77;9.15;;;0.20;99.90;;;;;;6183444;23;20017;-67
2023/12/01 12:37:04;;;;;;;17.40;7.95;;;0.20;99.90;;;;;;6210618;23;20024;-67